aviador You're here:

KBVE Decoded Metar

BOOTHVILLE in LA, USA
Report Time2017-07-21 03:51:00
UTC Time2017-07-21 04:41:03
Flight Rules vfr VFR
Wind190° at 04 kt
W.Rank190° ranks 18
Current wind is below 190° avg. (7.2)
Visibility9999 m
Phenomena:N/A
Clouds:N/A
Expected CloudBase > 1,200 ft AGL from Temp-Dew spread
CeilingNone
Temp29°C (ISA +14)
Dew Point26°C (84% RH)
Heat Index35.6°C
QNH1017 hPa
Density Alt1,916 ft
Elevation3 ft
Report Wrong Elevation
Raw Report
KBVE 210351Z AUTO 19004KT 10SM CLR 29/26 A3004 RMK AO2 SLP173
T02940256 $=

Extra information for KBVE:More info

Metar Taf Metar & Taf Last 4 Metars F.Rules Stats Wind Profile Meteogram Temp Stats Airport Information Weather charts Add Link Nearby VenuesMetar ALERT Operation Metar Decoded Social comments

AIRNAV info for KBVE